METAR AND TAF INFORMATION
METAR FOR UTDD
ADDS - METARS form results

(1239 UTC 23 January 2019)
Data provider http://aviationweather.gov/metar/data/
 
METAR text: UTDD 231230Z 16001MPS 7000 NSC 04/M03 Q1022 R09/D NOSIG RMK QFE698/0930
Conditions at: UTDD (DUSHANBE , TJ) observed 1230 UTC 23 January 2019
Temperature: 4.0°C (39°F)
Dewpoint: -3.0°C (27°F) [RH = 60%]
Pressure (altimeter): 30.18 inches Hg (1022.0 mb)
Winds: from the SSE (160 degrees) at 2 MPH (2 knots; 1.0 m/s)
Visibility: 4 miles ( 7 km)
Ceiling: at least 12,000 feet AGL
Clouds: sky clear below 12,000 feet AGL
Weather: no significant weather observed at this time

METAR text: UTDD 231200Z 16002MPS 9999 NSC 06/M04 Q1022 R09/D NOSIG RMK QFE697/0930
Conditions at: UTDD (DUSHANBE , TJ) observed 1200 UTC 23 January 2019
Temperature: 6.0°C (43°F)
Dewpoint: -4.0°C (25°F) [RH = 49%]
Pressure (altimeter): 30.18 inches Hg (1022.0 mb)
Winds: from the SSE (160 degrees) at 5 MPH (4 knots; 2.1 m/s)
Visibility: 6 or more miles (10+ km)
Ceiling: at least 12,000 feet AGL
Clouds: sky clear below 12,000 feet AGL
Weather: no significant weather observed at this time

Forecast for: UTDD (DUSHANBE , TJ)
Text: TAF UTDD 231200Z 2313/2401 VRB02MPS 3100 BR FU SCT060 BKN100
Forecast period: 1300 UTC 23 January 2019 to 0100 UTC 24 January 2019
Forecast type: FROM: standard forecast or significant change
Winds: variable direction winds at 5 MPH (4 knots; 2.1 m/s)
Visibility: 1.93 miles (3.11 km)
Ceiling: 10000 feet AGL
Clouds: scattered clouds at 6000 feet AGL
broken clouds at 10000 feet AGL
Weather: BR FU  (mist, smoke)
Text: TEMPO 2315/2401 1300 BR FU
Forecast period: 1500 UTC 23 January 2019 to 0100 UTC 24 January 2019
Forecast type: TEMPORARY: The following changes expected for less than half the time period
Visibility: 0.81 miles (1.30 km)
Ceiling: unknown
Clouds: missing
Weather: BR FU  (mist, smoke)

 AIRPORT MAP

 RUNWAY INFORMATION

 AIRPORT FREQUENCIES
Type APP Name APP Frequency 127.1 MHZ
Type ATIS Name ATIS Frequency 126.2 MHZ
Type GND Name GND Frequency 121.7 MHZ
Type TWR Name TWR Frequency 119.2 MHZ

 AIRPORT NEAR NAVIGATION AIDS
Type VOR-DME Name Dushanbe Frequency 113600 KHZ
Type NDB Name Dushanbe Frequency 372 KHZ
Type NDB Name Dushanbe Frequency 420 KHZ



2018 Air Astana Virtual Airline